Aviation Digital Data Service (ADDS)

Output produced by METARs form (1654 UTC 20 January 2019)
found at http://www.aviationweather.gov/metar/data/
 
FTTC 201500Z VRB02KT CAVOK 36/// Q1011
FTTY 201500Z 00000KT CAVOK 31/M01 Q1013
FTTD 201500Z 36008KT CAVOK 37/17 Q1010
FTTJ 201600Z 32005KT 320V020 CAVOK 35/M03 Q1010 NOSIG
TAF FTTJ 201100Z 2012/2118 02006KT CAVOK 
     TEMPO 2016/2020 4000 HZ 
     TEMPO 2105/2108 4000 HZ
       
FTTA 201600Z 00000KT CAVOK 38/09 Q1010